sensor_id;sensor_type;location;lat;lon;timestamp;P1;durP1;ratioP1;P2;durP2;ratioP2
9106;SDS011;4589;48.690;8.952;2023-02-15T00:00:31;46.20;;;24.83;;
9106;SDS011;4589;48.690;8.952;2023-02-15T00:02:56;38.20;;;23.00;;
9106;SDS011;4589;48.690;8.952;2023-02-15T00:05:22;40.97;;;22.47;;
9106;SDS011;4589;48.690;8.952;2023-02-15T00:07:48;51.47;;;24.33;;
9106;SDS011;4589;48.690;8.952;2023-02-15T00:10:13;46.17;;;24.30;;
9106;SDS011;4589;48.690;8.952;2023-02-15T00:12:39;44.50;;;22.60;;
9106;SDS011;4589;48.690;8.952;2023-02-15T00:15:05;46.73;;;23.70;;
9106;SDS011;4589;48.690;8.952;2023-02-15T00:17:31;48.70;;;22.60;;
9106;SDS011;4589;48.690;8.952;2023-02-15T00:19:56;41.40;;;21.90;;
9106;SDS011;4589;48.690;8.952;2023-02-15T00:22:22;44.92;;;24.65;;
9106;SDS011;4589;48.690;8.952;2023-02-15T00:24:48;47.23;;;24.07;;
9106;SDS011;4589;48.690;8.952;2023-02-15T00:27:15;42.97;;;23.90;;
9106;SDS011;4589;48.690;8.952;2023-02-15T00:29:40;47.63;;;24.47;;
9106;SDS011;4589;48.690;8.952;2023-02-15T00:32:06;53.47;;;24.60;;
9106;SDS011;4589;48.690;8.952;2023-02-15T00:34:32;44.97;;;22.07;;
9106;SDS011;4589;48.690;8.952;2023-02-15T00:36:58;44.33;;;23.93;;
9106;SDS011;4589;48.690;8.952;2023-02-15T00:39:24;38.87;;;22.00;;
9106;SDS011;4589;48.690;8.952;2023-02-15T00:41:50;40.08;;;21.92;;
9106;SDS011;4589;48.690;8.952;2023-02-15T00:44:16;41.63;;;23.58;;
9106;SDS011;4589;48.690;8.952;2023-02-15T00:46:42;46.60;;;23.77;;
9106;SDS011;4589;48.690;8.952;2023-02-15T00:49:08;41.73;;;22.87;;
9106;SDS011;4589;48.690;8.952;2023-02-15T00:51:34;45.53;;;23.40;;
9106;SDS011;4589;48.690;8.952;2023-02-15T00:54:00;47.83;;;23.50;;
9106;SDS011;4589;48.690;8.952;2023-02-15T00:56:26;45.75;;;22.60;;
9106;SDS011;4589;48.690;8.952;2023-02-15T00:58:53;42.33;;;22.35;;
9106;SDS011;4589;48.690;8.952;2023-02-15T01:01:19;44.93;;;23.57;;
9106;SDS011;4589;48.690;8.952;2023-02-15T01:03:46;50.72;;;25.65;;
9106;SDS011;4589;48.690;8.952;2023-02-15T01:06:12;39.53;;;22.23;;
9106;SDS011;4589;48.690;8.952;2023-02-15T01:08:41;51.83;;;23.52;;
9106;SDS011;4589;48.690;8.952;2023-02-15T01:11:09;39.97;;;21.52;;
9106;SDS011;4589;48.690;8.952;2023-02-15T01:13:36;47.72;;;23.25;;
9106;SDS011;4589;48.690;8.952;2023-02-15T01:16:02;47.43;;;23.77;;
9106;SDS011;4589;48.690;8.952;2023-02-15T01:18:29;38.50;;;22.92;;
9106;SDS011;4589;48.690;8.952;2023-02-15T01:20:55;40.73;;;23.17;;
9106;SDS011;4589;48.690;8.952;2023-02-15T01:23:21;46.90;;;24.43;;
9106;SDS011;4589;48.690;8.952;2023-02-15T01:25:46;40.97;;;21.50;;
9106;SDS011;4589;48.690;8.952;2023-02-15T01:28:12;48.67;;;23.10;;
9106;SDS011;4589;48.690;8.952;2023-02-15T01:30:38;47.20;;;22.60;;
9106;SDS011;4589;48.690;8.952;2023-02-15T01:33:04;50.50;;;26.43;;
9106;SDS011;4589;48.690;8.952;2023-02-15T01:35:30;42.70;;;23.05;;
9106;SDS011;4589;48.690;8.952;2023-02-15T01:37:56;46.87;;;24.20;;
9106;SDS011;4589;48.690;8.952;2023-02-15T01:40:22;42.20;;;23.87;;
9106;SDS011;4589;48.690;8.952;2023-02-15T01:42:52;48.15;;;24.23;;
9106;SDS011;4589;48.690;8.952;2023-02-15T01:45:26;46.20;;;22.38;;
9106;SDS011;4589;48.690;8.952;2023-02-15T01:53:03;43.40;;;21.13;;
9106;SDS011;4589;48.690;8.952;2023-02-15T01:55:42;43.00;;;21.30;;
9106;SDS011;4589;48.690;8.952;2023-02-15T01:58:12;42.90;;;22.13;;
9106;SDS011;4589;48.690;8.952;2023-02-15T02:00:39;40.85;;;23.45;;
9106;SDS011;4589;48.690;8.952;2023-02-15T02:03:14;45.13;;;22.57;;
9106;SDS011;4589;48.690;8.952;2023-02-15T02:05:40;44.00;;;21.50;;
9106;SDS011;4589;48.690;8.952;2023-02-15T02:08:06;48.70;;;22.77;;
9106;SDS011;4589;48.690;8.952;2023-02-15T02:10:34;39.10;;;21.48;;
9106;SDS011;4589;48.690;8.952;2023-02-15T02:13:02;41.00;;;21.90;;
9106;SDS011;4589;48.690;8.952;2023-02-15T02:15:33;47.00;;;21.77;;
9106;SDS011;4589;48.690;8.952;2023-02-15T02:18:28;40.92;;;21.50;;
9106;SDS011;4589;48.690;8.952;2023-02-15T02:21:28;45.75;;;24.52;;
9106;SDS011;4589;48.690;8.952;2023-02-15T02:23:58;41.20;;;22.90;;
9106;SDS011;4589;48.690;8.952;2023-02-15T02:29:51;42.45;;;22.60;;
9106;SDS011;4589;48.690;8.952;2023-02-15T02:43:33;35.55;;;19.00;;
9106;SDS011;4589;48.690;8.952;2023-02-15T02:49:03;36.85;;;20.27;;
9106;SDS011;4589;48.690;8.952;2023-02-15T02:51:29;37.83;;;19.57;;
9106;SDS011;4589;48.690;8.952;2023-02-15T02:53:55;40.00;;;20.47;;
9106;SDS011;4589;48.690;8.952;2023-02-15T02:56:39;34.75;;;19.30;;
9106;SDS011;4589;48.690;8.952;2023-02-15T02:59:14;38.20;;;20.48;;
9106;SDS011;4589;48.690;8.952;2023-02-15T03:01:55;37.00;;;20.50;;
9106;SDS011;4589;48.690;8.952;2023-02-15T03:04:28;35.80;;;19.25;;
9106;SDS011;4589;48.690;8.952;2023-02-15T03:06:57;35.78;;;19.40;;
9106;SDS011;4589;48.690;8.952;2023-02-15T03:09:42;35.67;;;20.25;;
9106;SDS011;4589;48.690;8.952;2023-02-15T03:12:16;39.65;;;20.80;;
9106;SDS011;4589;48.690;8.952;2023-02-15T03:14:53;40.30;;;20.20;;
9106;SDS011;4589;48.690;8.952;2023-02-15T03:17:25;36.08;;;19.48;;
9106;SDS011;4589;48.690;8.952;2023-02-15T03:19:55;43.58;;;18.80;;
9106;SDS011;4589;48.690;8.952;2023-02-15T03:22:43;34.42;;;20.30;;
9106;SDS011;4589;48.690;8.952;2023-02-15T03:25:22;38.92;;;19.80;;
9106;SDS011;4589;48.690;8.952;2023-02-15T03:27:53;41.55;;;19.40;;
9106;SDS011;4589;48.690;8.952;2023-02-15T03:30:23;35.92;;;18.92;;
9106;SDS011;4589;48.690;8.952;2023-02-15T03:32:51;34.72;;;19.40;;
9106;SDS011;4589;48.690;8.952;2023-02-15T03:35:20;35.92;;;19.67;;
9106;SDS011;4589;48.690;8.952;2023-02-15T03:37:55;35.88;;;20.23;;
9106;SDS011;4589;48.690;8.952;2023-02-15T03:43:19;36.80;;;19.92;;
9106;SDS011;4589;48.690;8.952;2023-02-15T03:45:56;34.00;;;19.38;;
9106;SDS011;4589;48.690;8.952;2023-02-15T03:48:32;38.83;;;19.15;;
9106;SDS011;4589;48.690;8.952;2023-02-15T03:51:04;37.10;;;18.77;;
9106;SDS011;4589;48.690;8.952;2023-02-15T03:53:51;35.47;;;19.38;;
9106;SDS011;4589;48.690;8.952;2023-02-15T03:56:19;35.47;;;19.67;;
9106;SDS011;4589;48.690;8.952;2023-02-15T03:58:45;34.43;;;18.90;;
9106;SDS011;4589;48.690;8.952;2023-02-15T04:01:47;38.75;;;19.30;;
9106;SDS011;4589;48.690;8.952;2023-02-15T04:04:32;26.35;;;16.10;;
9106;SDS011;4589;48.690;8.952;2023-02-15T04:07:08;34.60;;;19.35;;
9106;SDS011;4589;48.690;8.952;2023-02-15T04:09:34;35.63;;;17.95;;
9106;SDS011;4589;48.690;8.952;2023-02-15T04:12:19;33.75;;;18.50;;
9106;SDS011;4589;48.690;8.952;2023-02-15T04:14:44;34.47;;;18.73;;
9106;SDS011;4589;48.690;8.952;2023-02-15T04:17:29;33.15;;;17.50;;
9106;SDS011;4589;48.690;8.952;2023-02-15T04:19:55;33.50;;;18.45;;
9106;SDS011;4589;48.690;8.952;2023-02-15T04:22:39;39.70;;;18.67;;
9106;SDS011;4589;48.690;8.952;2023-02-15T04:25:23;37.00;;;19.75;;
9106;SDS011;4589;48.690;8.952;2023-02-15T04:27:50;40.30;;;21.00;;
9106;SDS011;4589;48.690;8.952;2023-02-15T04:30:18;35.08;;;19.75;;
9106;SDS011;4589;48.690;8.952;2023-02-15T04:32:45;34.47;;;19.80;;
9106;SDS011;4589;48.690;8.952;2023-02-15T04:35:11;32.67;;;18.85;;
9106;SDS011;4589;48.690;8.952;2023-02-15T04:37:38;38.08;;;19.02;;
9106;SDS011;4589;48.690;8.952;2023-02-15T04:40:05;39.38;;;18.30;;
9106;SDS011;4589;48.690;8.952;2023-02-15T04:42:31;41.88;;;18.38;;
9106;SDS011;4589;48.690;8.952;2023-02-15T04:44:57;33.70;;;18.50;;
9106;SDS011;4589;48.690;8.952;2023-02-15T04:47:23;34.10;;;20.00;;
9106;SDS011;4589;48.690;8.952;2023-02-15T04:49:49;37.77;;;20.30;;
9106;SDS011;4589;48.690;8.952;2023-02-15T04:52:15;34.57;;;19.17;;
9106;SDS011;4589;48.690;8.952;2023-02-15T04:54:42;31.42;;;19.17;;
9106;SDS011;4589;48.690;8.952;2023-02-15T04:57:08;41.72;;;19.08;;
9106;SDS011;4589;48.690;8.952;2023-02-15T04:59:34;36.55;;;18.45;;
9106;SDS011;4589;48.690;8.952;2023-02-15T05:02:00;41.73;;;18.87;;
9106;SDS011;4589;48.690;8.952;2023-02-15T05:04:26;38.25;;;20.63;;
9106;SDS011;4589;48.690;8.952;2023-02-15T05:06:52;28.73;;;17.77;;
9106;SDS011;4589;48.690;8.952;2023-02-15T05:09:18;36.92;;;20.33;;
9106;SDS011;4589;48.690;8.952;2023-02-15T05:11:44;41.40;;;19.73;;
9106;SDS011;4589;48.690;8.952;2023-02-15T05:14:10;32.17;;;17.50;;
9106;SDS011;4589;48.690;8.952;2023-02-15T05:16:36;33.90;;;18.05;;
9106;SDS011;4589;48.690;8.952;2023-02-15T05:19:03;33.17;;;17.98;;
9106;SDS011;4589;48.690;8.952;2023-02-15T05:21:29;34.72;;;17.65;;
9106;SDS011;4589;48.690;8.952;2023-02-15T05:23:55;34.13;;;19.65;;
9106;SDS011;4589;48.690;8.952;2023-02-15T05:26:21;34.83;;;17.43;;
9106;SDS011;4589;48.690;8.952;2023-02-15T05:29:08;33.95;;;18.20;;
9106;SDS011;4589;48.690;8.952;2023-02-15T05:31:34;31.55;;;18.67;;
9106;SDS011;4589;48.690;8.952;2023-02-15T05:34:00;31.48;;;18.25;;
9106;SDS011;4589;48.690;8.952;2023-02-15T05:36:26;32.97;;;20.08;;
9106;SDS011;4589;48.690;8.952;2023-02-15T05:38:53;28.00;;;16.75;;
9106;SDS011;4589;48.690;8.952;2023-02-15T05:41:18;37.83;;;19.20;;
9106;SDS011;4589;48.690;8.952;2023-02-15T05:43:44;36.67;;;21.13;;
9106;SDS011;4589;48.690;8.952;2023-02-15T05:46:10;37.50;;;19.53;;
9106;SDS011;4589;48.690;8.952;2023-02-15T05:48:37;42.03;;;20.20;;
9106;SDS011;4589;48.690;8.952;2023-02-15T05:51:03;35.10;;;18.50;;
9106;SDS011;4589;48.690;8.952;2023-02-15T05:53:38;30.98;;;17.23;;
9106;SDS011;4589;48.690;8.952;2023-02-15T05:56:06;35.67;;;17.25;;
9106;SDS011;4589;48.690;8.952;2023-02-15T05:58:42;33.53;;;18.42;;
9106;SDS011;4589;48.690;8.952;2023-02-15T06:03:42;29.13;;;17.58;;
9106;SDS011;4589;48.690;8.952;2023-02-15T06:06:08;32.03;;;18.05;;
9106;SDS011;4589;48.690;8.952;2023-02-15T06:08:34;35.92;;;18.23;;
9106;SDS011;4589;48.690;8.952;2023-02-15T06:11:02;33.60;;;18.25;;
9106;SDS011;4589;48.690;8.952;2023-02-15T06:13:28;35.30;;;17.02;;
9106;SDS011;4589;48.690;8.952;2023-02-15T06:15:54;29.73;;;17.33;;
9106;SDS011;4589;48.690;8.952;2023-02-15T06:18:20;29.70;;;17.77;;
9106;SDS011;4589;48.690;8.952;2023-02-15T06:20:46;31.10;;;17.70;;
9106;SDS011;4589;48.690;8.952;2023-02-15T06:23:12;29.10;;;17.30;;
9106;SDS011;4589;48.690;8.952;2023-02-15T06:25:38;36.75;;;20.20;;
9106;SDS011;4589;48.690;8.952;2023-02-15T06:28:04;31.17;;;17.60;;
9106;SDS011;4589;48.690;8.952;2023-02-15T06:30:30;32.63;;;16.50;;
9106;SDS011;4589;48.690;8.952;2023-02-15T06:32:56;34.00;;;18.38;;
9106;SDS011;4589;48.690;8.952;2023-02-15T06:35:22;35.27;;;18.87;;
9106;SDS011;4589;48.690;8.952;2023-02-15T06:37:48;35.53;;;17.90;;
9106;SDS011;4589;48.690;8.952;2023-02-15T06:40:14;33.53;;;18.45;;
9106;SDS011;4589;48.690;8.952;2023-02-15T06:42:43;33.37;;;17.30;;
9106;SDS011;4589;48.690;8.952;2023-02-15T06:45:09;34.80;;;17.52;;
9106;SDS011;4589;48.690;8.952;2023-02-15T06:47:35;27.15;;;15.98;;
9106;SDS011;4589;48.690;8.952;2023-02-15T06:50:01;26.25;;;16.27;;
9106;SDS011;4589;48.690;8.952;2023-02-15T06:52:27;30.67;;;18.13;;
9106;SDS011;4589;48.690;8.952;2023-02-15T06:54:54;26.63;;;16.35;;
9106;SDS011;4589;48.690;8.952;2023-02-15T06:57:20;36.03;;;17.57;;
9106;SDS011;4589;48.690;8.952;2023-02-15T06:59:46;25.30;;;16.40;;
9106;SDS011;4589;48.690;8.952;2023-02-15T07:02:12;29.60;;;17.60;;
9106;SDS011;4589;48.690;8.952;2023-02-15T07:04:38;29.35;;;16.55;;
9106;SDS011;4589;48.690;8.952;2023-02-15T07:07:04;34.60;;;18.17;;
9106;SDS011;4589;48.690;8.952;2023-02-15T07:09:34;28.65;;;18.02;;
9106;SDS011;4589;48.690;8.952;2023-02-15T07:11:59;32.43;;;17.50;;
9106;SDS011;4589;48.690;8.952;2023-02-15T07:14:44;30.50;;;16.40;;
9106;SDS011;4589;48.690;8.952;2023-02-15T07:17:09;27.93;;;17.13;;
9106;SDS011;4589;48.690;8.952;2023-02-15T07:19:35;29.73;;;17.10;;
9106;SDS011;4589;48.690;8.952;2023-02-15T07:22:01;36.00;;;20.03;;
9106;SDS011;4589;48.690;8.952;2023-02-15T07:24:28;30.90;;;17.45;;
9106;SDS011;4589;48.690;8.952;2023-02-15T07:26:54;30.80;;;16.23;;
9106;SDS011;4589;48.690;8.952;2023-02-15T07:29:19;31.17;;;17.40;;
9106;SDS011;4589;48.690;8.952;2023-02-15T07:31:45;32.27;;;18.60;;
9106;SDS011;4589;48.690;8.952;2023-02-15T07:34:11;28.07;;;16.80;;
9106;SDS011;4589;48.690;8.952;2023-02-15T07:36:37;32.72;;;19.40;;
9106;SDS011;4589;48.690;8.952;2023-02-15T07:39:03;31.17;;;18.37;;
9106;SDS011;4589;48.690;8.952;2023-02-15T07:41:29;35.07;;;17.73;;
9106;SDS011;4589;48.690;8.952;2023-02-15T07:43:55;31.20;;;17.70;;
9106;SDS011;4589;48.690;8.952;2023-02-15T07:46:21;29.77;;;17.60;;
9106;SDS011;4589;48.690;8.952;2023-02-15T07:48:47;39.70;;;19.37;;
9106;SDS011;4589;48.690;8.952;2023-02-15T07:51:13;38.10;;;19.35;;
9106;SDS011;4589;48.690;8.952;2023-02-15T07:53:39;34.60;;;18.95;;
9106;SDS011;4589;48.690;8.952;2023-02-15T07:56:07;27.50;;;18.48;;
9106;SDS011;4589;48.690;8.952;2023-02-15T07:58:35;36.08;;;20.45;;
9106;SDS011;4589;48.690;8.952;2023-02-15T08:01:24;36.90;;;21.90;;
9106;SDS011;4589;48.690;8.952;2023-02-15T08:03:51;40.45;;;21.52;;
9106;SDS011;4589;48.690;8.952;2023-02-15T08:06:17;31.60;;;17.30;;
9106;SDS011;4589;48.690;8.952;2023-02-15T08:08:43;24.97;;;17.27;;
9106;SDS011;4589;48.690;8.952;2023-02-15T08:13:54;26.33;;;18.13;;
9106;SDS011;4589;48.690;8.952;2023-02-15T08:18:53;21.10;;;17.10;;
9106;SDS011;4589;48.690;8.952;2023-02-15T08:21:20;21.80;;;14.73;;
9106;SDS011;4589;48.690;8.952;2023-02-15T08:23:46;20.23;;;14.47;;
9106;SDS011;4589;48.690;8.952;2023-02-15T08:26:12;22.10;;;13.67;;
9106;SDS011;4589;48.690;8.952;2023-02-15T08:28:40;17.60;;;13.20;;
9106;SDS011;4589;48.690;8.952;2023-02-15T08:31:12;16.07;;;12.40;;
9106;SDS011;4589;48.690;8.952;2023-02-15T08:33:39;18.13;;;12.53;;
9106;SDS011;4589;48.690;8.952;2023-02-15T08:36:10;15.17;;;11.20;;
9106;SDS011;4589;48.690;8.952;2023-02-15T08:38:37;15.77;;;11.70;;
9106;SDS011;4589;48.690;8.952;2023-02-15T08:41:22;16.40;;;12.03;;
9106;SDS011;4589;48.690;8.952;2023-02-15T08:43:51;21.57;;;14.27;;
9106;SDS011;4589;48.690;8.952;2023-02-15T08:46:21;16.60;;;10.50;;
9106;SDS011;4589;48.690;8.952;2023-02-15T08:48:48;16.03;;;11.40;;
9106;SDS011;4589;48.690;8.952;2023-02-15T08:51:18;18.00;;;10.50;;
9106;SDS011;4589;48.690;8.952;2023-02-15T08:53:47;10.43;;;9.33;;
9106;SDS011;4589;48.690;8.952;2023-02-15T08:56:14;10.30;;;8.80;;
9106;SDS011;4589;48.690;8.952;2023-02-15T08:58:41;14.23;;;8.47;;
9106;SDS011;4589;48.690;8.952;2023-02-15T09:01:10;13.77;;;9.30;;
9106;SDS011;4589;48.690;8.952;2023-02-15T09:03:37;12.33;;;9.50;;
9106;SDS011;4589;48.690;8.952;2023-02-15T09:06:03;9.40;;;8.50;;
9106;SDS011;4589;48.690;8.952;2023-02-15T09:08:29;12.77;;;9.07;;
9106;SDS011;4589;48.690;8.952;2023-02-15T09:11:03;9.50;;;8.53;;
9106;SDS011;4589;48.690;8.952;2023-02-15T09:13:31;12.50;;;9.90;;
9106;SDS011;4589;48.690;8.952;2023-02-15T09:16:00;13.30;;;9.70;;
9106;SDS011;4589;48.690;8.952;2023-02-15T09:18:27;12.10;;;8.80;;
9106;SDS011;4589;48.690;8.952;2023-02-15T09:20:54;15.13;;;9.50;;
9106;SDS011;4589;48.690;8.952;2023-02-15T09:23:20;11.30;;;8.83;;
9106;SDS011;4589;48.690;8.952;2023-02-15T09:25:45;10.67;;;9.30;;
9106;SDS011;4589;48.690;8.952;2023-02-15T09:28:11;10.23;;;9.13;;
9106;SDS011;4589;48.690;8.952;2023-02-15T09:30:37;11.03;;;8.50;;
9106;SDS011;4589;48.690;8.952;2023-02-15T09:33:03;9.90;;;8.23;;
9106;SDS011;4589;48.690;8.952;2023-02-15T09:35:29;11.87;;;8.63;;
9106;SDS011;4589;48.690;8.952;2023-02-15T09:37:55;15.90;;;9.40;;
9106;SDS011;4589;48.690;8.952;2023-02-15T09:40:21;12.00;;;9.30;;
9106;SDS011;4589;48.690;8.952;2023-02-15T09:58:17;8.33;;;6.70;;
9106;SDS011;4589;48.690;8.952;2023-02-15T10:00:52;7.23;;;6.30;;
9106;SDS011;4589;48.690;8.952;2023-02-15T10:12:06;12.27;;;7.83;;
9106;SDS011;4589;48.690;8.952;2023-02-15T10:15:00;8.50;;;7.13;;
9106;SDS011;4589;48.690;8.952;2023-02-15T10:20:41;8.43;;;7.43;;
9106;SDS011;4589;48.690;8.952;2023-02-15T10:23:34;8.20;;;7.30;;
9106;SDS011;4589;48.690;8.952;2023-02-15T10:26:21;11.47;;;7.97;;
9106;SDS011;4589;48.690;8.952;2023-02-15T10:31:56;8.43;;;6.70;;
9106;SDS011;4589;48.690;8.952;2023-02-15T10:37:12;9.63;;;6.87;;
9106;SDS011;4589;48.690;8.952;2023-02-15T10:39:56;8.50;;;6.40;;
9106;SDS011;4589;48.690;8.952;2023-02-15T10:50:55;10.50;;;7.10;;
9106;SDS011;4589;48.690;8.952;2023-02-15T10:56:23;11.33;;;7.60;;
9106;SDS011;4589;48.690;8.952;2023-02-15T11:01:45;9.20;;;7.10;;
9106;SDS011;4589;48.690;8.952;2023-02-15T11:07:22;9.10;;;7.00;;
9106;SDS011;4589;48.690;8.952;2023-02-15T11:09:51;8.40;;;6.60;;
9106;SDS011;4589;48.690;8.952;2023-02-15T11:12:30;11.37;;;6.77;;
9106;SDS011;4589;48.690;8.952;2023-02-15T11:17:24;9.30;;;6.57;;
9106;SDS011;4589;48.690;8.952;2023-02-15T11:20:02;7.30;;;6.20;;
9106;SDS011;4589;48.690;8.952;2023-02-15T11:22:33;7.77;;;6.17;;
9106;SDS011;4589;48.690;8.952;2023-02-15T11:24:59;7.63;;;6.53;;
9106;SDS011;4589;48.690;8.952;2023-02-15T11:27:28;10.37;;;7.40;;
9106;SDS011;4589;48.690;8.952;2023-02-15T11:30:00;8.60;;;6.70;;
9106;SDS011;4589;48.690;8.952;2023-02-15T11:32:43;8.50;;;6.20;;
9106;SDS011;4589;48.690;8.952;2023-02-15T11:37:43;11.50;;;6.23;;
9106;SDS011;4589;48.690;8.952;2023-02-15T11:40:17;7.80;;;5.90;;
9106;SDS011;4589;48.690;8.952;2023-02-15T11:42:51;8.13;;;6.17;;
9106;SDS011;4589;48.690;8.952;2023-02-15T11:47:50;7.57;;;5.93;;
9106;SDS011;4589;48.690;8.952;2023-02-15T11:50:18;9.63;;;5.70;;
9106;SDS011;4589;48.690;8.952;2023-02-15T11:52:49;6.93;;;5.70;;
9106;SDS011;4589;48.690;8.952;2023-02-15T11:55:18;7.67;;;4.97;;
9106;SDS011;4589;48.690;8.952;2023-02-15T12:00:36;6.00;;;4.67;;
9106;SDS011;4589;48.690;8.952;2023-02-15T12:03:13;5.60;;;4.17;;
9106;SDS011;4589;48.690;8.952;2023-02-15T12:05:40;5.40;;;4.07;;
9106;SDS011;4589;48.690;8.952;2023-02-15T12:08:12;7.27;;;3.53;;
9106;SDS011;4589;48.690;8.952;2023-02-15T12:13:58;6.07;;;4.30;;
9106;SDS011;4589;48.690;8.952;2023-02-15T12:16:31;4.83;;;3.97;;
9106;SDS011;4589;48.690;8.952;2023-02-15T12:19:04;3.23;;;2.63;;
9106;SDS011;4589;48.690;8.952;2023-02-15T12:21:31;6.17;;;4.60;;
9106;SDS011;4589;48.690;8.952;2023-02-15T12:24:26;4.93;;;4.53;;
9106;SDS011;4589;48.690;8.952;2023-02-15T12:26:56;6.53;;;5.83;;
9106;SDS011;4589;48.690;8.952;2023-02-15T12:29:34;10.10;;;5.00;;
9106;SDS011;4589;48.690;8.952;2023-02-15T12:32:05;5.97;;;4.67;;
9106;SDS011;4589;48.690;8.952;2023-02-15T12:34:37;5.13;;;4.20;;
9106;SDS011;4589;48.690;8.952;2023-02-15T12:37:10;9.90;;;4.10;;
9106;SDS011;4589;48.690;8.952;2023-02-15T12:39:56;8.03;;;5.37;;
9106;SDS011;4589;48.690;8.952;2023-02-15T12:42:27;7.30;;;4.40;;
9106;SDS011;4589;48.690;8.952;2023-02-15T12:45:19;5.50;;;3.93;;
9106;SDS011;4589;48.690;8.952;2023-02-15T12:50:41;6.07;;;3.80;;
9106;SDS011;4589;48.690;8.952;2023-02-15T12:56:18;8.63;;;3.87;;
9106;SDS011;4589;48.690;8.952;2023-02-15T12:58:36;5.17;;;3.23;;
9106;SDS011;4589;48.690;8.952;2023-02-15T13:01:09;4.60;;;3.20;;
9106;SDS011;4589;48.690;8.952;2023-02-15T13:03:40;3.73;;;3.37;;
9106;SDS011;4589;48.690;8.952;2023-02-15T13:06:22;5.07;;;3.50;;
9106;SDS011;4589;48.690;8.952;2023-02-15T13:08:49;8.90;;;3.47;;
9106;SDS011;4589;48.690;8.952;2023-02-15T13:11:27;3.40;;;2.97;;
9106;SDS011;4589;48.690;8.952;2023-02-15T13:14:03;5.20;;;3.17;;
9106;SDS011;4589;48.690;8.952;2023-02-15T13:16:42;3.97;;;3.37;;
9106;SDS011;4589;48.690;8.952;2023-02-15T13:19:18;4.93;;;3.63;;
9106;SDS011;4589;48.690;8.952;2023-02-15T13:22:00;4.37;;;3.20;;
9106;SDS011;4589;48.690;8.952;2023-02-15T13:24:33;3.57;;;3.20;;
9106;SDS011;4589;48.690;8.952;2023-02-15T13:27:05;5.63;;;3.23;;
9106;SDS011;4589;48.690;8.952;2023-02-15T13:29:39;3.70;;;3.33;;
9106;SDS011;4589;48.690;8.952;2023-02-15T13:32:11;7.53;;;3.83;;
9106;SDS011;4589;48.690;8.952;2023-02-15T13:34:50;3.23;;;2.93;;
9106;SDS011;4589;48.690;8.952;2023-02-15T13:37:20;4.90;;;3.50;;
9106;SDS011;4589;48.690;8.952;2023-02-15T13:40:13;4.70;;;3.90;;
9106;SDS011;4589;48.690;8.952;2023-02-15T13:42:47;5.10;;;3.33;;
9106;SDS011;4589;48.690;8.952;2023-02-15T13:45:29;7.30;;;3.67;;
9106;SDS011;4589;48.690;8.952;2023-02-15T13:53:40;5.07;;;3.40;;
9106;SDS011;4589;48.690;8.952;2023-02-15T13:56:15;6.50;;;4.00;;
9106;SDS011;4589;48.690;8.952;2023-02-15T13:58:54;4.53;;;3.80;;
9106;SDS011;4589;48.690;8.952;2023-02-15T14:12:07;11.60;;;6.40;;
9106;SDS011;4589;48.690;8.952;2023-02-15T14:14:48;8.93;;;6.37;;
9106;SDS011;4589;48.690;8.952;2023-02-15T14:29:13;8.70;;;7.23;;
9106;SDS011;4589;48.690;8.952;2023-02-15T14:31:42;11.70;;;7.70;;
9106;SDS011;4589;48.690;8.952;2023-02-15T14:34:20;9.10;;;6.70;;
9106;SDS011;4589;48.690;8.952;2023-02-15T14:36:50;9.33;;;7.00;;
9106;SDS011;4589;48.690;8.952;2023-02-15T14:39:22;11.33;;;7.50;;
9106;SDS011;4589;48.690;8.952;2023-02-15T14:42:34;11.27;;;7.40;;
9106;SDS011;4589;48.690;8.952;2023-02-15T14:45:13;12.40;;;7.07;;
9106;SDS011;4589;48.690;8.952;2023-02-15T14:48:12;9.70;;;7.10;;
9106;SDS011;4589;48.690;8.952;2023-02-15T14:50:46;9.73;;;7.43;;
9106;SDS011;4589;48.690;8.952;2023-02-15T14:53:16;9.87;;;7.10;;
9106;SDS011;4589;48.690;8.952;2023-02-15T14:58:38;10.70;;;8.40;;
9106;SDS011;4589;48.690;8.952;2023-02-15T15:01:28;13.63;;;7.67;;
9106;SDS011;4589;48.690;8.952;2023-02-15T15:04:00;15.60;;;7.23;;
9106;SDS011;4589;48.690;8.952;2023-02-15T15:06:37;10.50;;;6.70;;
9106;SDS011;4589;48.690;8.952;2023-02-15T15:11:44;12.57;;;7.00;;
9106;SDS011;4589;48.690;8.952;2023-02-15T15:16:56;9.00;;;7.37;;
9106;SDS011;4589;48.690;8.952;2023-02-15T15:22:22;16.30;;;8.40;;
9106;SDS011;4589;48.690;8.952;2023-02-15T15:24:51;21.10;;;8.53;;
9106;SDS011;4589;48.690;8.952;2023-02-15T15:49:37;23.50;;;14.10;;
9106;SDS011;4589;48.690;8.952;2023-02-15T15:52:14;19.60;;;13.70;;
9106;SDS011;4589;48.690;8.952;2023-02-15T15:54:45;18.10;;;12.80;;
9106;SDS011;4589;48.690;8.952;2023-02-15T15:57:15;19.10;;;13.10;;
9106;SDS011;4589;48.690;8.952;2023-02-15T15:59:53;20.50;;;13.70;;
9106;SDS011;4589;48.690;8.952;2023-02-15T16:02:19;20.13;;;13.20;;
9106;SDS011;4589;48.690;8.952;2023-02-15T16:04:45;16.80;;;12.60;;
9106;SDS011;4589;48.690;8.952;2023-02-15T16:09:41;18.30;;;13.10;;
9106;SDS011;4589;48.690;8.952;2023-02-15T16:12:18;19.20;;;14.20;;
9106;SDS011;4589;48.690;8.952;2023-02-15T16:14:44;23.03;;;13.00;;
9106;SDS011;4589;48.690;8.952;2023-02-15T16:17:17;18.70;;;12.50;;
9106;SDS011;4589;48.690;8.952;2023-02-15T16:19:46;21.90;;;13.63;;
9106;SDS011;4589;48.690;8.952;2023-02-15T16:22:18;24.37;;;13.77;;
9106;SDS011;4589;48.690;8.952;2023-02-15T16:27:43;17.27;;;13.47;;
9106;SDS011;4589;48.690;8.952;2023-02-15T16:30:16;20.70;;;13.47;;
9106;SDS011;4589;48.690;8.952;2023-02-15T16:32:42;23.23;;;13.57;;
9106;SDS011;4589;48.690;8.952;2023-02-15T16:35:11;19.77;;;13.80;;
9106;SDS011;4589;48.690;8.952;2023-02-15T16:37:40;27.70;;;14.00;;
9106;SDS011;4589;48.690;8.952;2023-02-15T16:40:06;20.40;;;13.43;;
9106;SDS011;4589;48.690;8.952;2023-02-15T16:42:32;22.77;;;15.20;;
9106;SDS011;4589;48.690;8.952;2023-02-15T16:45:12;27.10;;;16.57;;
9106;SDS011;4589;48.690;8.952;2023-02-15T16:47:41;26.03;;;16.93;;
9106;SDS011;4589;48.690;8.952;2023-02-15T16:50:20;30.07;;;18.60;;
9106;SDS011;4589;48.690;8.952;2023-02-15T16:52:48;26.10;;;16.63;;
9106;SDS011;4589;48.690;8.952;2023-02-15T16:55:22;24.83;;;16.67;;
9106;SDS011;4589;48.690;8.952;2023-02-15T16:57:49;21.90;;;14.93;;
9106;SDS011;4589;48.690;8.952;2023-02-15T17:00:19;23.77;;;16.60;;
9106;SDS011;4589;48.690;8.952;2023-02-15T17:03:01;25.00;;;16.50;;
9106;SDS011;4589;48.690;8.952;2023-02-15T17:05:51;24.53;;;15.40;;
9106;SDS011;4589;48.690;8.952;2023-02-15T17:08:17;23.67;;;17.90;;
9106;SDS011;4589;48.690;8.952;2023-02-15T17:16:42;24.60;;;16.30;;
9106;SDS011;4589;48.690;8.952;2023-02-15T17:19:24;30.13;;;18.10;;
9106;SDS011;4589;48.690;8.952;2023-02-15T17:22:05;26.70;;;16.47;;
9106;SDS011;4589;48.690;8.952;2023-02-15T17:24:38;28.43;;;17.47;;
9106;SDS011;4589;48.690;8.952;2023-02-15T17:27:20;22.93;;;16.40;;
9106;SDS011;4589;48.690;8.952;2023-02-15T17:30:13;20.77;;;14.60;;
9106;SDS011;4589;48.690;8.952;2023-02-15T17:33:21;22.33;;;14.80;;
9106;SDS011;4589;48.690;8.952;2023-02-15T17:35:44;24.33;;;16.97;;
9106;SDS011;4589;48.690;8.952;2023-02-15T17:38:39;27.27;;;16.57;;
9106;SDS011;4589;48.690;8.952;2023-02-15T17:41:05;28.70;;;20.53;;
9106;SDS011;4589;48.690;8.952;2023-02-15T17:43:32;33.97;;;20.00;;
9106;SDS011;4589;48.690;8.952;2023-02-15T17:45:57;35.90;;;22.00;;
9106;SDS011;4589;48.690;8.952;2023-02-15T17:48:26;30.77;;;19.03;;
9106;SDS011;4589;48.690;8.952;2023-02-15T17:50:56;31.13;;;19.47;;
9106;SDS011;4589;48.690;8.952;2023-02-15T17:53:24;34.07;;;21.30;;
9106;SDS011;4589;48.690;8.952;2023-02-15T17:55:50;38.87;;;24.40;;
9106;SDS011;4589;48.690;8.952;2023-02-15T17:58:16;55.33;;;35.07;;
9106;SDS011;4589;48.690;8.952;2023-02-15T18:00:56;122.57;;;62.33;;
9106;SDS011;4589;48.690;8.952;2023-02-15T18:03:44;62.50;;;36.90;;
9106;SDS011;4589;48.690;8.952;2023-02-15T18:06:43;41.77;;;26.33;;
9106;SDS011;4589;48.690;8.952;2023-02-15T18:09:27;39.80;;;25.80;;
9106;SDS011;4589;48.690;8.952;2023-02-15T18:12:17;39.17;;;22.57;;
9106;SDS011;4589;48.690;8.952;2023-02-15T18:14:46;37.37;;;23.50;;